Terminal Aerodrome Forecast
Issued by NWS

Home | Current Version | Previous Version | Text Only | Print | Product List | Glossary On
Versions: 1 2 3 4 5 6 7 8 9 10 11 12 13 14 15 16 17 18 19 20 21 22 23 24 25 26 27 28 29 30 31 32 33 34
000
FTUS44 KLIX 261720
TAFHUM
TAF
KHUM 261720Z 2618/2718 17016G27KT P6SM BKN020
     FM262300 17016G25KT P6SM BKN015
     FM270300 19012G22KT 3SM -TSRA OVC015CB
     FM270700 25010KT P6SM BKN015
     FM270900 30009KT P6SM BKN015
     FM271100 32007KT P6SM SCT020=

USA.gov is the U.S. government's official web portal to all federal, state and local government web resources and services.